createdAt,value
2022-11-25T00:01:23.265Z,94769.00
2022-11-25T00:03:54.541Z,94767.78
2022-11-25T00:06:30.372Z,94766.13
2022-11-25T00:09:01.927Z,94768.72
2022-11-25T00:11:29.367Z,94765.72
2022-11-25T00:13:57.472Z,94751.97
2022-11-25T00:16:26.552Z,94740.25
2022-11-25T00:18:55.722Z,94739.69
2022-11-25T00:21:26.469Z,94726.69
2022-11-25T00:23:58.610Z,94736.97
2022-11-25T00:26:27.164Z,94727.69
2022-11-25T00:28:54.742Z,94723.88
2022-11-25T00:31:27.448Z,94743.97
2022-11-25T00:33:54.961Z,94758.25
2022-11-25T00:36:26.512Z,94754.91
2022-11-25T00:38:55.749Z,94770.50
2022-11-25T00:41:42.114Z,94760.53
2022-11-25T00:44:32.694Z,94756.44
2022-11-25T00:47:00.273Z,94766.72
2022-11-25T00:49:29.772Z,94784.06
2022-11-25T00:51:57.892Z,94780.25
2022-11-25T00:54:25.100Z,94762.31
2022-11-25T00:56:52.932Z,94744.63
2022-11-25T00:59:19.757Z,94734.50
2022-11-25T01:01:47.068Z,94739.88
2022-11-25T01:04:13.848Z,94755.00
2022-11-25T01:06:40.605Z,94767.44
2022-11-25T01:09:09.223Z,94777.91
2022-11-25T01:11:39.404Z,94786.41
2022-11-25T01:14:07.040Z,94774.47
2022-11-25T01:16:33.751Z,94776.16
2022-11-25T01:19:02.114Z,94777.56
2022-11-25T01:21:32.185Z,94742.03
2022-11-25T01:24:01.136Z,94741.75
2022-11-25T01:26:29.209Z,94751.38
2022-11-25T01:29:01.198Z,94748.94
2022-11-25T01:31:33.534Z,94751.47
2022-11-25T01:34:12.853Z,94731.63
2022-11-25T01:36:40.550Z,94748.69
2022-11-25T01:39:08.306Z,94751.78
2022-11-25T01:41:35.819Z,94761.75
2022-11-25T01:44:05.841Z,94757.44
2022-11-25T01:46:58.013Z,94760.84
2022-11-25T01:49:43.305Z,94764.91
2022-11-25T01:52:26.686Z,94758.28
2022-11-25T01:54:59.847Z,94763.63
2022-11-25T01:57:32.967Z,94767.78
2022-11-25T02:00:02.767Z,94758.63
2022-11-25T02:02:31.561Z,94744.50
2022-11-25T02:05:01.431Z,94751.22
2022-11-25T02:07:34.034Z,94744.47
2022-11-25T02:10:02.933Z,94737.06
2022-11-25T02:12:30.588Z,94740.50
2022-11-25T02:14:59.063Z,94744.22
2022-11-25T02:17:26.188Z,94736.00
2022-11-25T02:20:01.520Z,94733.88
2022-11-25T02:23:07.874Z,94738.19
2022-11-25T02:25:37.825Z,94740.81
2022-11-25T02:28:15.697Z,94734.81
2022-11-25T02:30:43.701Z,94752.47
2022-11-25T02:33:12.110Z,94761.25
2022-11-25T02:35:49.116Z,94755.34
2022-11-25T02:38:29.707Z,94747.25
2022-11-25T02:41:17.774Z,94739.72
2022-11-25T02:43:47.642Z,94746.53
2022-11-25T02:46:21.870Z,94730.34
2022-11-25T02:51:41.225Z,94748.16
2022-11-25T02:54:09.872Z,94735.16
2022-11-25T02:56:38.010Z,94745.81
2022-11-25T02:59:04.796Z,94728.69
2022-11-25T03:01:33.160Z,94743.47
2022-11-25T03:04:00.221Z,94735.91
2022-11-25T03:06:28.986Z,94750.28
2022-11-25T03:08:56.314Z,94755.69
2022-11-25T03:11:43.371Z,94742.66
2022-11-25T03:14:10.413Z,94735.53
2022-11-25T03:16:37.285Z,94731.16
2022-11-25T03:19:05.455Z,94701.66
2022-11-25T03:21:32.179Z,94726.41
2022-11-25T03:23:58.914Z,94744.75
2022-11-25T03:26:26.777Z,94744.13
2022-11-25T03:28:53.522Z,94745.19
2022-11-25T03:31:20.606Z,94738.28
2022-11-25T03:33:47.418Z,94717.59
2022-11-25T03:36:14.669Z,94701.75
2022-11-25T03:38:41.826Z,94723.59
2022-11-25T03:41:08.708Z,94712.78
2022-11-25T03:43:36.536Z,94731.28
2022-11-25T03:46:03.668Z,94737.63
2022-11-25T03:48:30.715Z,94743.28
2022-11-25T03:50:57.735Z,94750.22
2022-11-25T03:53:25.899Z,94747.13
2022-11-25T03:55:53.596Z,94760.91
2022-11-25T03:58:22.714Z,94748.91
2022-11-25T04:00:51.185Z,94756.41
2022-11-25T04:03:18.357Z,94739.09
2022-11-25T04:05:45.214Z,94735.72
2022-11-25T04:08:13.842Z,94709.44
2022-11-25T04:10:41.261Z,94733.00
2022-11-25T04:13:10.224Z,94735.94
2022-11-25T04:15:46.702Z,94729.16
2022-11-25T04:18:15.034Z,94723.63
2022-11-25T04:20:42.948Z,94716.66
2022-11-25T04:23:12.066Z,94711.03
2022-11-25T04:25:44.396Z,94717.88
2022-11-25T04:28:23.891Z,94717.94
2022-11-25T04:30:50.931Z,94722.13
2022-11-25T04:33:17.897Z,94748.53
2022-11-25T04:35:47.697Z,94753.53
2022-11-25T04:38:14.515Z,94757.22
2022-11-25T04:40:42.135Z,94755.00
2022-11-25T04:43:20.896Z,94733.41
2022-11-25T04:46:13.883Z,94746.03
2022-11-25T04:48:43.884Z,94749.13
2022-11-25T04:51:10.714Z,94747.41
2022-11-25T04:53:40.309Z,94740.22
2022-11-25T04:56:11.216Z,94707.00
2022-11-25T04:59:01.472Z,94729.56
2022-11-25T05:01:28.869Z,94738.22
2022-11-25T05:04:04.154Z,94735.41
2022-11-25T05:06:30.872Z,94746.25
2022-11-25T05:08:57.832Z,94728.50
2022-11-25T05:11:25.948Z,94733.81
2022-11-25T05:13:53.827Z,94720.34
2022-11-25T05:16:21.006Z,94732.00
2022-11-25T05:18:47.989Z,94745.38
2022-11-25T05:21:14.775Z,94761.16
2022-11-25T05:23:43.086Z,94769.03
2022-11-25T05:26:10.667Z,94762.22
2022-11-25T05:28:43.892Z,94757.38
2022-11-25T05:31:11.755Z,94754.06
2022-11-25T05:33:39.624Z,94762.81
2022-11-25T05:36:08.605Z,94760.44
2022-11-25T05:38:45.189Z,94753.69
2022-11-25T05:41:15.988Z,94766.28
2022-11-25T05:43:44.675Z,94758.75
2022-11-25T05:46:11.890Z,94751.88
2022-11-25T05:48:44.887Z,94735.72
2022-11-25T05:51:12.228Z,94734.88
2022-11-25T05:53:40.116Z,94734.41
2022-11-25T05:56:07.687Z,94752.31
2022-11-25T05:59:01.865Z,94757.94
2022-11-25T06:01:41.484Z,94771.09
2022-11-25T06:04:08.621Z,94768.94
2022-11-25T06:06:35.360Z,94760.72
2022-11-25T06:09:02.070Z,94776.69
2022-11-25T06:11:29.779Z,94777.72
2022-11-25T06:13:58.267Z,94754.94
2022-11-25T06:16:26.022Z,94764.16
2022-11-25T06:19:06.724Z,94759.94
2022-11-25T06:21:33.686Z,94775.66
2022-11-25T06:24:01.066Z,94772.50
2022-11-25T06:26:28.432Z,94781.97
2022-11-25T06:28:56.669Z,94771.50
2022-11-25T06:31:26.398Z,94775.09
2022-11-25T06:34:02.847Z,94780.66
2022-11-25T06:36:30.268Z,94790.38
2022-11-25T06:38:57.088Z,94781.19
2022-11-25T06:41:23.939Z,94794.09
2022-11-25T06:43:50.960Z,94792.63
2022-11-25T06:46:24.488Z,94782.22
2022-11-25T06:48:53.294Z,94764.22
2022-11-25T06:51:20.458Z,94717.75
2022-11-25T06:53:47.832Z,94774.19
2022-11-25T06:56:19.776Z,94790.31
2022-11-25T06:58:47.800Z,94775.31
2022-11-25T07:01:20.981Z,94781.16
2022-11-25T07:03:49.822Z,94785.91
2022-11-25T07:06:18.032Z,94783.56
2022-11-25T07:08:45.691Z,94789.88
2022-11-25T07:11:21.597Z,94782.91
2022-11-25T07:13:51.488Z,94789.22
2022-11-25T07:16:18.273Z,94799.63
2022-11-25T07:18:45.559Z,94797.84
2022-11-25T07:21:18.558Z,94802.13
2022-11-25T07:23:46.722Z,94802.44
2022-11-25T07:26:14.977Z,94794.44
2022-11-25T07:28:42.724Z,94811.31
2022-11-25T07:31:25.111Z,94800.56
2022-11-25T07:33:58.979Z,94762.38
2022-11-25T07:36:27.282Z,94778.53
2022-11-25T07:38:54.522Z,94784.16
2022-11-25T07:41:23.981Z,94805.47
2022-11-25T07:43:54.629Z,94823.16
2022-11-25T07:46:29.150Z,94818.31
2022-11-25T07:48:59.349Z,94808.34
2022-11-25T07:51:29.360Z,94807.59
2022-11-25T07:53:58.129Z,94807.69
2022-11-25T07:56:26.048Z,94818.56
2022-11-25T07:58:53.674Z,94800.22
2022-11-25T08:01:20.910Z,94811.41
2022-11-25T08:03:49.751Z,94803.94
2022-11-25T08:06:26.171Z,94799.97
2022-11-25T08:08:56.329Z,94796.19
2022-11-25T08:11:28.757Z,94810.81
2022-11-25T08:13:57.275Z,94810.69
2022-11-25T08:16:27.758Z,94812.34
2022-11-25T08:18:56.366Z,94805.78
2022-11-25T08:21:23.557Z,94823.84
2022-11-25T08:23:52.612Z,94824.19
2022-11-25T08:26:21.061Z,94831.63
2022-11-25T08:28:48.143Z,94827.81
2022-11-25T08:31:19.348Z,94816.22
2022-11-25T08:33:46.768Z,94819.38
2022-11-25T08:36:13.998Z,94828.06
2022-11-25T08:38:42.998Z,94821.94
2022-11-25T08:41:13.694Z,94779.69
2022-11-25T08:43:41.613Z,94799.34
2022-11-25T08:46:14.960Z,94761.28
2022-11-25T08:48:43.103Z,94791.69
2022-11-25T08:51:17.073Z,94786.41
2022-11-25T08:53:44.171Z,94794.06
2022-11-25T08:56:12.810Z,94779.34
2022-11-25T08:58:39.684Z,94783.06
2022-11-25T09:01:07.394Z,94801.22
2022-11-25T09:03:37.855Z,94798.22
2022-11-25T09:06:07.212Z,94820.97
2022-11-25T09:08:34.884Z,94830.91
2022-11-25T09:11:03.288Z,94825.84
2022-11-25T09:13:30.454Z,94828.91
2022-11-25T09:15:58.171Z,94842.59
2022-11-25T09:18:27.158Z,94849.03
2022-11-25T09:20:54.123Z,94840.00
2022-11-25T09:23:23.396Z,94842.88
2022-11-25T09:25:58.254Z,94848.72
2022-11-25T09:28:26.923Z,94831.22
2022-11-25T09:30:53.818Z,94824.09
2022-11-25T09:33:21.306Z,94828.13
2022-11-25T09:35:50.460Z,94821.84
2022-11-25T09:38:17.209Z,94802.16
2022-11-25T09:40:58.726Z,94830.56
2022-11-25T09:43:47.655Z,94815.34
2022-11-25T09:46:42.413Z,94843.03
2022-11-25T09:49:15.729Z,94825.09
2022-11-25T09:51:51.377Z,94860.75
2022-11-25T09:54:34.490Z,94835.41
2022-11-25T09:57:29.482Z,94809.13
2022-11-25T09:59:56.189Z,94847.94
2022-11-25T10:02:43.635Z,94836.94
2022-11-25T10:05:25.753Z,94853.31
2022-11-25T10:08:13.693Z,94887.25
2022-11-25T10:10:48.360Z,94867.19
2022-11-25T10:13:22.764Z,94900.66
2022-11-25T10:15:50.861Z,94905.00
2022-11-25T10:18:25.356Z,94906.13
2022-11-25T10:20:54.086Z,94925.56
2022-11-25T10:23:38.145Z,94932.28
2022-11-25T10:26:14.953Z,94953.25
2022-11-25T10:28:55.846Z,94950.94
2022-11-25T10:31:31.015Z,94952.88
2022-11-25T10:33:59.874Z,94938.34
2022-11-25T10:36:33.353Z,94943.00
2022-11-25T10:39:24.355Z,94938.88
2022-11-25T10:41:59.897Z,94919.28
2022-11-25T10:44:29.222Z,94924.28
2022-11-25T10:47:16.138Z,94928.28
2022-11-25T10:50:17.347Z,94943.72
2022-11-25T10:52:55.358Z,94955.88
2022-11-25T10:55:26.289Z,94946.06
2022-11-25T10:57:54.245Z,94956.41
2022-11-25T11:00:34.893Z,94949.63
2022-11-25T11:03:23.274Z,94926.34
2022-11-25T11:05:53.070Z,94902.47
2022-11-25T11:08:23.654Z,94925.94
2022-11-25T11:11:19.764Z,94893.19
2022-11-25T11:13:48.590Z,94921.84
2022-11-25T11:16:36.348Z,94882.47
2022-11-25T11:19:04.302Z,94870.97
2022-11-25T11:21:37.477Z,94856.69
2022-11-25T11:24:35.661Z,94867.66
2022-11-25T11:27:23.851Z,94886.19
2022-11-25T11:30:20.427Z,94858.34
2022-11-25T11:33:06.198Z,94875.41
2022-11-25T11:35:47.674Z,94852.63
2022-11-25T11:39:01.602Z,94822.88
2022-11-25T11:41:45.577Z,94823.13
2022-11-25T11:44:39.576Z,94836.50
2022-11-25T11:47:06.352Z,94835.91
2022-11-25T11:50:03.525Z,94846.69
2022-11-25T11:52:33.163Z,94835.28
2022-11-25T11:55:17.958Z,94844.75
2022-11-25T11:57:51.298Z,94839.81
2022-11-25T12:00:21.005Z,94835.91
2022-11-25T12:03:13.207Z,94839.06
2022-11-25T12:05:41.058Z,94860.63
2022-11-25T12:08:14.702Z,94848.47
2022-11-25T12:10:45.042Z,94836.75
2022-11-25T12:13:22.606Z,94826.31
2022-11-25T12:16:26.924Z,94831.59
2022-11-25T12:19:22.530Z,94827.88
2022-11-25T12:21:57.885Z,94829.09
2022-11-25T12:25:03.165Z,94809.06
2022-11-25T12:27:45.497Z,94842.78
2022-11-25T12:30:16.374Z,94836.53
2022-11-25T12:33:12.739Z,94868.44
2022-11-25T12:35:51.656Z,94822.28
2022-11-25T12:38:18.603Z,94834.69
2022-11-25T12:41:07.766Z,94820.03
2022-11-25T12:43:47.678Z,94808.34
2022-11-25T12:46:35.966Z,94844.03
2022-11-25T12:49:04.734Z,94810.81
2022-11-25T12:51:56.468Z,94861.66
2022-11-25T12:54:50.673Z,94801.91
2022-11-25T12:57:56.214Z,94818.81
2022-11-25T13:00:43.301Z,94810.56
2022-11-25T13:03:48.660Z,94815.53
2022-11-25T13:06:53.346Z,94805.38
2022-11-25T13:09:50.758Z,94835.84
2022-11-25T13:12:27.986Z,94825.09
2022-11-25T13:15:18.061Z,94816.44
2022-11-25T13:17:48.669Z,94812.97
2022-11-25T13:20:27.784Z,94798.78
2022-11-25T13:23:10.479Z,94802.75
2022-11-25T13:25:39.686Z,94806.53
2022-11-25T13:28:30.992Z,94780.84
2022-11-25T13:31:17.051Z,94794.50
2022-11-25T13:33:44.478Z,94785.13
2022-11-25T13:36:20.196Z,94788.09
2022-11-25T13:38:49.979Z,94773.06
2022-11-25T13:41:17.107Z,94758.94
2022-11-25T13:44:01.104Z,94779.09
2022-11-25T13:46:46.292Z,94772.53
2022-11-25T13:49:35.353Z,94772.94
2022-11-25T13:52:11.562Z,94784.59
2022-11-25T13:54:54.075Z,94795.50
2022-11-25T13:57:25.450Z,94804.56
2022-11-25T14:00:01.380Z,94799.06
2022-11-25T14:02:28.314Z,94797.34
2022-11-25T14:05:33.348Z,94796.78
2022-11-25T14:08:20.452Z,94810.00
2022-11-25T14:11:31.460Z,94817.81
2022-11-25T14:14:26.056Z,94815.44
2022-11-25T14:17:23.921Z,94816.13
2022-11-25T14:20:19.089Z,94825.53
2022-11-25T14:23:02.336Z,94836.16
2022-11-25T14:25:42.277Z,94828.00
2022-11-25T14:28:22.229Z,94833.34
2022-11-25T14:30:54.475Z,94821.69
2022-11-25T14:33:31.743Z,94838.13
2022-11-25T14:36:27.941Z,94829.72
2022-11-25T14:38:57.503Z,94825.94
2022-11-25T14:41:30.754Z,94834.84
2022-11-25T14:44:04.624Z,94825.19
2022-11-25T14:46:32.352Z,94842.28
2022-11-25T14:49:03.225Z,94840.13
2022-11-25T14:51:37.945Z,94864.03
2022-11-25T14:54:08.994Z,94855.00
2022-11-25T14:56:37.164Z,94855.19
2022-11-25T14:59:07.949Z,94868.91
2022-11-25T15:01:37.559Z,94867.16
2022-11-25T15:04:25.543Z,94861.81
2022-11-25T15:06:57.873Z,94885.69
2022-11-25T15:09:30.845Z,94893.31
2022-11-25T15:12:01.837Z,94882.53
2022-11-25T15:14:35.918Z,94883.91
2022-11-25T15:17:28.365Z,94885.97
2022-11-25T15:19:58.112Z,94903.44
2022-11-25T15:22:25.492Z,94889.63
2022-11-25T15:27:50.779Z,94885.09
2022-11-25T15:30:32.424Z,94892.31
2022-11-25T15:33:01.185Z,94889.38
2022-11-25T15:35:29.358Z,94900.41
2022-11-25T15:37:56.221Z,94916.59
2022-11-25T15:40:36.954Z,94906.31
2022-11-25T15:43:21.061Z,94920.16
2022-11-25T15:45:52.581Z,94916.53
2022-11-25T15:48:34.582Z,94936.41
2022-11-25T15:51:21.515Z,94923.97
2022-11-25T15:53:58.911Z,94939.91
2022-11-25T15:56:27.105Z,94959.81
2022-11-25T15:58:58.651Z,94943.47
2022-11-25T16:01:29.111Z,94941.75
2022-11-25T16:04:11.570Z,94928.66
2022-11-25T16:06:54.285Z,94958.16
2022-11-25T16:09:22.790Z,94960.78
2022-11-25T16:11:49.979Z,94936.94
2022-11-25T16:14:23.446Z,94961.31
2022-11-25T16:16:50.796Z,94968.28
2022-11-25T16:19:21.883Z,94983.91
2022-11-25T16:21:56.201Z,94957.28
2022-11-25T16:24:40.886Z,94973.88
2022-11-25T16:27:16.864Z,94935.09
2022-11-25T16:30:05.649Z,94975.78
2022-11-25T16:32:34.796Z,94970.50
2022-11-25T16:35:22.280Z,94985.13
2022-11-25T16:37:50.091Z,94976.00
2022-11-25T16:40:18.929Z,94999.13
2022-11-25T16:42:50.249Z,94996.31
2022-11-25T16:45:36.305Z,95011.34
2022-11-25T16:48:14.676Z,95039.22
2022-11-25T16:50:41.377Z,95003.16
2022-11-25T16:53:08.587Z,95028.72
2022-11-25T16:55:36.790Z,95032.47
2022-11-25T16:58:18.950Z,95036.44
2022-11-25T17:00:54.273Z,95037.16
2022-11-25T17:03:24.145Z,95059.41
2022-11-25T17:05:55.201Z,95053.06
2022-11-25T17:08:22.392Z,95035.50
2022-11-25T17:10:50.372Z,95033.97
2022-11-25T17:13:25.869Z,95071.94
2022-11-25T17:15:52.974Z,95029.06
2022-11-25T17:18:20.401Z,94998.78
2022-11-25T17:20:48.080Z,95026.94
2022-11-25T17:23:17.277Z,95051.69
2022-11-25T17:25:48.620Z,95055.34
2022-11-25T17:28:20.979Z,95037.66
2022-11-25T17:30:48.797Z,95065.03
2022-11-25T17:33:19.674Z,95040.09
2022-11-25T17:35:46.670Z,95027.06
2022-11-25T17:38:18.158Z,95053.00
2022-11-25T17:40:45.411Z,95056.94
2022-11-25T17:43:18.449Z,95056.31
2022-11-25T17:45:46.444Z,95093.03
2022-11-25T17:48:16.383Z,95080.56
2022-11-25T17:50:43.930Z,95080.94
2022-11-25T17:53:10.664Z,95075.22
2022-11-25T17:55:39.366Z,95099.06
2022-11-25T17:58:08.451Z,95089.94
2022-11-25T18:00:36.068Z,95100.72
2022-11-25T18:03:03.818Z,95126.09
2022-11-25T18:05:30.614Z,95102.53
2022-11-25T18:07:57.511Z,95127.78
2022-11-25T18:10:27.322Z,95103.63
2022-11-25T18:12:56.456Z,95085.63
2022-11-25T18:15:34.923Z,95103.88
2022-11-25T18:18:14.000Z,95088.59
2022-11-25T18:20:40.901Z,95100.69
2022-11-25T18:23:09.663Z,95092.78
2022-11-25T18:25:36.570Z,95096.16
2022-11-25T18:28:10.894Z,95106.41
2022-11-25T18:30:38.474Z,95105.28
2022-11-25T18:33:12.398Z,95126.78
2022-11-25T18:35:39.701Z,95134.34
2022-11-25T18:38:07.426Z,95140.00
2022-11-25T18:40:39.752Z,95159.94
2022-11-25T18:43:12.002Z,95160.31
2022-11-25T18:45:39.842Z,95172.19
2022-11-25T18:48:19.570Z,95154.81
2022-11-25T18:50:48.418Z,95178.25
2022-11-25T18:53:15.131Z,95185.44
2022-11-25T18:55:42.961Z,95172.22
2022-11-25T18:58:34.350Z,95151.34
2022-11-25T19:01:11.266Z,95197.91
2022-11-25T19:03:38.432Z,95190.56
2022-11-25T19:06:05.666Z,95181.75
2022-11-25T19:08:33.496Z,95177.19
2022-11-25T19:11:00.176Z,95193.75
2022-11-25T19:13:33.741Z,95198.00
2022-11-25T19:16:12.882Z,95222.06
2022-11-25T19:18:40.066Z,95199.53
2022-11-25T19:21:06.964Z,95224.00
2022-11-25T19:23:36.053Z,95199.81
2022-11-25T19:26:11.470Z,95236.00
2022-11-25T19:28:38.294Z,95242.97
2022-11-25T19:31:05.895Z,95234.81
2022-11-25T19:33:38.756Z,95279.88
2022-11-25T19:36:06.886Z,95237.47
2022-11-25T19:38:34.906Z,95255.81
2022-11-25T19:41:01.759Z,95291.72
2022-11-25T19:43:28.527Z,95292.91
2022-11-25T19:45:57.134Z,95255.50
2022-11-25T19:48:27.167Z,95277.66
2022-11-25T19:51:02.339Z,95306.34
2022-11-25T19:53:33.834Z,95303.50
2022-11-25T19:56:05.153Z,95274.91
2022-11-25T19:58:32.173Z,95304.28
2022-11-25T20:01:06.132Z,95286.69
2022-11-25T20:03:34.349Z,95275.75
2022-11-25T20:06:01.085Z,95277.91
2022-11-25T20:08:29.003Z,95302.81
2022-11-25T20:10:57.291Z,95321.59
2022-11-25T20:13:26.468Z,95311.75
2022-11-25T20:15:55.682Z,95278.47
2022-11-25T20:18:24.229Z,95278.28
2022-11-25T20:20:58.535Z,95318.75
2022-11-25T20:23:41.679Z,95305.31
2022-11-25T20:26:26.852Z,95325.09
2022-11-25T20:28:53.770Z,95347.31
2022-11-25T20:31:22.105Z,95345.09
2022-11-25T20:33:49.522Z,95365.16
2022-11-25T20:36:37.744Z,95363.44
2022-11-25T20:39:06.099Z,95368.06
2022-11-25T20:41:34.592Z,95353.94
2022-11-25T20:44:01.524Z,95378.84
2022-11-25T20:46:30.113Z,95355.19
2022-11-25T20:49:02.438Z,95375.69
2022-11-25T20:51:29.527Z,95373.75
2022-11-25T20:53:58.392Z,95386.25
2022-11-25T20:56:27.106Z,95386.44
2022-11-25T20:58:54.664Z,95412.47
2022-11-25T21:01:22.778Z,95395.16
2022-11-25T21:03:52.990Z,95387.38
2022-11-25T21:06:30.579Z,95412.00
2022-11-25T21:09:01.084Z,95421.16
2022-11-25T21:11:28.394Z,95409.97
2022-11-25T21:13:55.379Z,95412.91
2022-11-25T21:16:23.283Z,95433.03
2022-11-25T21:18:52.175Z,95441.41
2022-11-25T21:21:35.150Z,95421.44
2022-11-25T21:24:12.332Z,95451.22
2022-11-25T21:26:39.373Z,95455.88
2022-11-25T21:29:06.998Z,95423.94
2022-11-25T21:31:33.930Z,95463.34
2022-11-25T21:34:02.768Z,95445.91
2022-11-25T21:36:30.949Z,95453.13
2022-11-25T21:39:05.203Z,95466.59
2022-11-25T21:41:32.886Z,95439.47
2022-11-25T21:44:00.045Z,95469.13
2022-11-25T21:46:28.983Z,95454.78
2022-11-25T21:48:56.298Z,95470.34
2022-11-25T21:51:24.517Z,95472.56
2022-11-25T21:53:55.281Z,95481.53
2022-11-25T21:56:33.941Z,95492.78
2022-11-25T21:59:02.710Z,95481.63
2022-11-25T22:01:29.752Z,95473.63
2022-11-25T22:03:56.916Z,95448.59
2022-11-25T22:06:30.714Z,95457.88
2022-11-25T22:08:58.186Z,95466.19
2022-11-25T22:11:31.206Z,95462.25
2022-11-25T22:14:00.664Z,95465.41
2022-11-25T22:16:33.244Z,95462.28
2022-11-25T22:19:00.355Z,95481.63
2022-11-25T22:21:28.808Z,95487.66
2022-11-25T22:23:55.593Z,95475.88
2022-11-25T22:26:33.142Z,95515.50
2022-11-25T22:29:02.037Z,95518.09
2022-11-25T22:31:29.097Z,95495.06
2022-11-25T22:33:56.181Z,95477.13
2022-11-25T22:36:34.096Z,95509.75
2022-11-25T22:39:15.361Z,95483.69
2022-11-25T22:41:49.123Z,95497.28
2022-11-25T22:44:21.887Z,95498.97
2022-11-25T22:46:49.718Z,95496.78
2022-11-25T22:49:28.974Z,95514.13
2022-11-25T22:51:56.650Z,95510.28
2022-11-25T22:54:24.014Z,95536.06
2022-11-25T22:56:51.987Z,95530.56
2022-11-25T22:59:18.902Z,95526.31
2022-11-25T23:01:45.987Z,95518.06
2022-11-25T23:04:18.731Z,95494.41
2022-11-25T23:06:46.571Z,95505.34
2022-11-25T23:09:15.858Z,95531.13
2022-11-25T23:11:43.748Z,95531.94
2022-11-25T23:14:10.665Z,95519.66
2022-11-25T23:16:39.781Z,95545.28
2022-11-25T23:19:16.644Z,95549.88
2022-11-25T23:21:45.619Z,95541.50
2022-11-25T23:24:15.177Z,95524.72
2022-11-25T23:26:43.295Z,95551.91
2022-11-25T23:29:10.345Z,95490.56
2022-11-25T23:31:39.816Z,95532.13
2022-11-25T23:34:08.440Z,95537.06
2022-11-25T23:36:46.799Z,95554.00
2022-11-25T23:39:22.528Z,95499.28
2022-11-25T23:41:50.247Z,95513.97
2022-11-25T23:44:30.782Z,95525.16
2022-11-25T23:47:04.395Z,95562.50
2022-11-25T23:49:37.624Z,95559.91
2022-11-25T23:52:08.224Z,95576.47
2022-11-25T23:54:40.785Z,95555.91
2022-11-25T23:57:23.002Z,95552.41
2022-11-25T23:59:51.425Z,95565.25
